Hawaii METAR Reports

 

PHOG - Kahului, Hawaii, USA
Distance from station: WNW 8mi, 13km
Updated: Mon, 21-Jan-2019 1:54pm HST
Few Clouds
Few Clouds
 Wind from NNE
Wind: NNE 12 mph , 19 km/h
Temperature: 82°F , 28°C
Heat Index: 85°F , 29°C
Dew Point: 68°F , 20°C
Humidity: 62%
Barometer: 30.01 inHg , 1016.3 hPa
Clouds: Few Clouds
Visibility: 10 miles , 16 km
Cloud details: Few Clouds 4500 ft
2019/01/21 23:54 PHOG 212354Z 02010KT 10SM FEW045 28/20 A3001 RMK AO2 SLP168 T02830200 10289 20206 58012
PHJH - Lahaina/West Mau, Hawaii, USA
Distance from station: WNW 24mi, 39km
Updated: Mon, 21-Jan-2019 1:50pm HST
Few Clouds
Few Clouds
 Wind from NNE
Wind: NNE 14 mph , 22 km/h
Temperature: 81°F , 27°C
Heat Index: 83°F , 28°C
Dew Point: 66°F , 19°C
Humidity: 62%
Barometer: 30.02 inHg , 1016.6 hPa
Clouds: Few Clouds
Visibility: 15 miles , 24 km
Cloud details: Few Clouds 4000 ft
2019/01/21 23:50 PHJH 212350Z 03012KT 15SM FEW040 27/19 A3002 RMK WND DATA ESTMD
 
PHNY - Lanai City Airpo, Hawaii, USA
Distance from station: W 40mi, 65km
Updated: Mon, 21-Jan-2019 1:56pm HST
Few Clouds
Few Clouds
 Wind from WNW
Wind: WNW 14 mph , 22 km/h
Temperature: 77°F , 25°C
Dew Point: 64°F , 18°C
Humidity: 65%
Barometer: 30.07 inHg , 1018.3 hPa
Clouds: Few Clouds
Visibility: 10 miles , 16 km
Cloud details: Few Clouds 3700 ft
2019/01/21 23:56 PHNY 212356Z AUTO 29012KT 10SM FEW037 25/18 A3007 RMK AO2 SLP162 6//// T02500178 10256 20183 56014
PHMK - Molokai, Hawaii, USA
Distance from station: WNW 55mi, 88km
Updated: Mon, 21-Jan-2019 1:54pm HST
Clear
Clear
 Wind from NNE
Wind: NNE 10 mph , 17 km/h
Temperature: 81°F , 27°C
Heat Index: 83°F , 28°C
Dew Point: 66°F , 19°C
Humidity: 62%
Barometer: 30.03 inHg , 1016.9 hPa
Clouds: Clear
Visibility: 10 miles , 16 km
2019/01/21 23:54 PHMK 212354Z 02009KT 10SM CLR 27/19 A3003 RMK AO2 SLP173 T02670189 10272 20183 57016 $
 
PHKO - Kailua/Kona, Hawaii, USA
Distance from station: SSE 79mi, 128km
Updated: Mon, 21-Jan-2019 1:53pm HST
Partly Cloudy
Partly Cloudy
 Wind from varies
Wind: varies 7 mph , 11 km/h
Temperature: 81°F , 27°C
Heat Index: 82°F , 28°C
Dew Point: 63°F , 17°C
Humidity: 54%
Barometer: 29.99 inHg , 1015.6 hPa
Clouds: Partly Cloudy
Visibility: 10 miles , 16 km
Cloud details: Partly Cloudy 5000 ft
2019/01/21 23:53 PHKO 212353Z VRB06KT 10SM SCT050 27/17 A2999 RMK AO2 SLP156 T02670167 10267 20211 58017
PHSF - Bradshaw Aaf/Haw, Hawaii, USA
Distance from station: SE 90mi, 145km
Updated: Mon, 21-Jan-2019 1:56pm HST
Clear
Clear
 Wind from SSW
Wind: SSW 3 mph , 6 km/h
Temperature: 70°F , 21°C
Dew Point: 46°F , 8°C
Humidity: 43%
Barometer: 30.29 inHg , 1025.7 hPa
Clouds: Clear
Visibility: 10 miles , 16 km
2019/01/21 23:56 PHSF 212356Z AUTO 21003KT 10SM CLR 21/08 A3029 RMK AO2 SLP135 WND DATA ESTMD T02100081 10226 20159 PWINO $
 
PHNG - Kaneohe Mcas, Hawaii, USA
Distance from station: WNW 102mi, 164km
Updated: Mon, 21-Jan-2019 1:57pm HST
Clear
Clear
 Wind from N
Wind: N 9 mph , 15 km/h
Temperature: 81°F , 27°C
Heat Index: 85°F , 29°C
Dew Point: 72°F , 22°C
Humidity: 74%
Barometer: 30.00 inHg , 1015.9 hPa
Clouds: Clear
Visibility: 10 miles , 16 km
2019/01/21 23:57 PHNG 212357Z 01008KT 10SM CLR 27/22 A3000 RMK AO2 SLP154 T02670222 10267 20200 58012 $
PHNL - Honolulu, Hawaii, USA
Distance from station: WNW 108mi, 174km
Updated: Mon, 21-Jan-2019 1:53pm HST
Clear
Clear
 Wind from SW
Wind: SW 13 mph , 20 km/h
Temperature: 82°F , 28°C
Heat Index: 84°F , 29°C
Dew Point: 64°F , 18°C
Humidity: 55%
Barometer: 30.02 inHg , 1016.6 hPa
Clouds: Clear
Visibility: 10 miles , 16 km
2019/01/21 23:53 PHNL 212353Z 23011KT 10SM CLR 28/18 A3002 RMK AO2 SLP165 T02830183 10289 20211 58015 $
 
PHTO - Hilo, Hawaii, USA
Distance from station: SE 114mi, 183km
Updated: Mon, 21-Jan-2019 1:53pm HST
Clear
Clear
 Wind from ESE
Wind: ESE 16 mph , 26 km/h
Temperature: 81°F , 27°C
Heat Index: 83°F , 28°C
Dew Point: 66°F , 19°C
Humidity: 62%
Barometer: 29.99 inHg , 1015.6 hPa
Clouds: Clear
Visibility: 10 miles , 16 km
2019/01/21 23:53 PHTO 212353Z 11014KT 10SM CLR 27/19 A2999 RMK AO2 SLP154 T02720189 10283 20194 58021
PHJR - Kalaeloa, Hawaii, USA
Distance from station: WNW 117mi, 189km
Updated: Mon, 21-Jan-2019 1:53pm HST
Clear
Clear
 Wind from WSW
Wind: WSW 8 mph , 13 km/h
Temperature: 84°F , 29°C
Heat Index: 85°F , 29°C
Dew Point: 63°F , 17°C
Humidity: 48%
Barometer: 30.03 inHg , 1016.9 hPa
Clouds: Clear
Visibility: 10 miles , 16 km
2019/01/21 23:53 PHJR 212353Z 24007KT 10SM CLR 29/17 A3003 RMK AO2 SLP175 T02890167 10289 20194 58015 $
 
PHHI - Wheeler Afb/Oahu, Hawaii, USA
Distance from station: WNW 120mi, 193km
Updated: Mon, 21-Jan-2019 1:56pm HST
Clear
Clear
 Wind from WSW
Wind: WSW 8 mph , 13 km/h
Temperature: 81°F , 27°C
Heat Index: 82°F , 28°C
Dew Point: 63°F , 17°C
Humidity: 54%
Clouds: Clear
Visibility: 10 miles , 16 km
2019/01/21 23:56 PHHI 212356Z AUTO 24007KT 10SM CLR 27/17 M RMK AO2 SLPNO T02700169 10270 20182 $
PHLI - Lihue/Kauai Is, Hawaii, USA
Distance from station: WNW 209mi, 336km
Updated: Mon, 21-Jan-2019 1:53pm HST
Clear
Clear
 Wind from S
Wind: S 14 mph , 22 km/h
Temperature: 81°F , 27°C
Heat Index: 82°F , 28°C
Dew Point: 63°F , 17°C
Humidity: 54%
Barometer: 30.02 inHg , 1016.6 hPa
Clouds: Clear
Visibility: 10 miles , 16 km
2019/01/21 23:53 PHLI 212353Z 18012KT 10SM CLR 27/17 A3002 RMK AO2 SLP162 T02720172 10283 20239 58017
 
PHBK - Barking Sands/Ka, Hawaii, USA
Distance from station: WNW 237mi, 382km
Updated: Mon, 21-Jan-2019 1:56pm HST
Clear
Clear
 Wind from SSE
Wind: SSE 14 mph , 22 km/h, Gust: 23 mph , 37 km/h
Temperature: 82°F , 28°C
Heat Index: 84°F , 29°C
Dew Point: 66°F , 19°C
Humidity: 58%
Barometer: 29.99 inHg , 1015.6 hPa
Clouds: Clear
Visibility: 10 miles , 16 km
2019/01/21 23:56 PHBK 212356Z AUTO 15012G20KT 10SM CLR 28/19 A2999 RMK AO2 SLP158 T02780189 10289 20233 56020